Du har inga inställningar för hoppväder.nu

Hoppväder.nu

Senast uppdaterat 02:08

UTC-tid

2021-10-25 kl. 00:08


Sol och måne

Solen går upp 8:08 och går ner 18:08 (beräknade cirkatider)
Nästa fullmåne blir om 25 dagar (2021-11-19)

METAR

ESOW (Västerås)
(1458 minuter sedan)
ESOW 242350Z AUTO 21014KT 9999 OVC061/// 10/04 Q1016=



ESSA (Arlanda)
(1458 minuter sedan)
ESSA 242350Z 23016KT 9999 FEW040 BKN062 09/04 Q1016 NOSIG=



ESKN (Skavsta)
(1458 minuter sedan)
ESKN 242350Z 22009KT CAVOK 07/04 Q1018=



ESOE (Örebro)
(1458 minuter sedan)
ESOE 242350Z AUTO 21012KT 9999 BKN061/// 09/05 Q1017=



ESSD (Borlänge)
(1458 minuter sedan)
ESSD 242350Z AUTO 23015G26KT 9999 BKN009/// BKN013/// OVC017/// 10/07 Q1012=



TAF

ESOW (Västerås)
ESOW



ESSA (Arlanda)
(1478 minuter sedan)
ESSA 242330Z 2500/2524 22014KT 9999 FEW030 PROB40 2503/2506 BKN007 PROB40 2521/2524 RA=



ESKN (Skavsta)
(1478 minuter sedan)
ESKN 242330Z 2500/2524 22010KT CAVOK PROB40 2509/2512 BKN012 PROB40 2521/2524 RA=



ESOE (Örebro)
(1478 minuter sedan)
ESOE 242330Z 2500/2508 20012KT 9999 SCT045=



ESSD (Borlänge)
ESSD





Kodnycklar till TAF och METAR






LHP

(Västerås är område se32e i Delområde 4)

Prognos är inte uppdaterad






Preliminär prognos